createdAt,value
2023-04-07T00:01:15.980Z,100384.06
2023-04-07T00:03:43.990Z,100385.31
2023-04-07T00:06:11.976Z,100381.66
2023-04-07T00:08:39.607Z,100382.06
2023-04-07T00:11:09.329Z,100384.31
2023-04-07T00:13:36.827Z,100388.38
2023-04-07T00:16:04.161Z,100388.66
2023-04-07T00:18:31.921Z,100384.03
2023-04-07T00:20:59.418Z,100382.19
2023-04-07T00:23:27.514Z,100382.63
2023-04-07T00:25:55.099Z,100387.97
2023-04-07T00:28:24.548Z,100377.41
2023-04-07T00:30:51.856Z,100387.19
2023-04-07T00:33:19.971Z,100380.25
2023-04-07T00:35:47.954Z,100374.38
2023-04-07T00:38:15.813Z,100367.28
2023-04-07T00:40:43.341Z,100382.38
2023-04-07T00:43:11.066Z,100370.22
2023-04-07T00:45:40.113Z,100372.88
2023-04-07T00:48:08.164Z,100378.16
2023-04-07T00:50:35.581Z,100377.78
2023-04-07T00:53:05.352Z,100375.69
2023-04-07T00:55:32.950Z,100368.41
2023-04-07T00:58:00.800Z,100363.63
2023-04-07T01:00:28.311Z,100359.84
2023-04-07T01:03:01.718Z,100363.34
2023-04-07T01:05:38.783Z,100355.22
2023-04-07T01:08:13.476Z,100360.06
2023-04-07T01:10:50.359Z,100354.47
2023-04-07T01:13:24.289Z,100352.53
2023-04-07T01:15:54.872Z,100350.25
2023-04-07T01:18:29.486Z,100348.44
2023-04-07T01:21:02.393Z,100343.94
2023-04-07T01:23:49.491Z,100336.75
2023-04-07T01:26:22.296Z,100339.81
2023-04-07T01:29:11.341Z,100335.28
2023-04-07T01:31:42.118Z,100336.69
2023-04-07T01:34:11.893Z,100333.03
2023-04-07T01:36:40.111Z,100330.22
2023-04-07T01:39:09.728Z,100335.66
2023-04-07T01:41:38.789Z,100331.31
2023-04-07T01:44:08.143Z,100328.72
2023-04-07T01:46:36.028Z,100330.00
2023-04-07T01:49:06.693Z,100328.72
2023-04-07T01:51:35.417Z,100330.03
2023-04-07T01:54:05.265Z,100328.97
2023-04-07T01:56:32.623Z,100332.91
2023-04-07T01:59:00.374Z,100325.56
2023-04-07T02:01:29.156Z,100322.59
2023-04-07T02:04:05.632Z,100320.50
2023-04-07T02:06:39.338Z,100319.09
2023-04-07T02:09:11.092Z,100318.34
2023-04-07T02:11:40.550Z,100313.13
2023-04-07T02:14:10.298Z,100306.00
2023-04-07T02:16:39.474Z,100316.94
2023-04-07T02:19:07.656Z,100311.56
2023-04-07T02:21:37.276Z,100311.56
2023-04-07T02:24:06.751Z,100302.94
2023-04-07T02:26:35.459Z,100309.78
2023-04-07T02:29:03.425Z,100309.31
2023-04-07T02:31:31.482Z,100302.97
2023-04-07T02:33:59.348Z,100302.16
2023-04-07T02:36:26.566Z,100303.91
2023-04-07T02:38:59.015Z,100292.91
2023-04-07T02:41:26.535Z,100301.97
2023-04-07T02:43:54.961Z,100296.00
2023-04-07T02:46:22.559Z,100291.28
2023-04-07T02:48:50.367Z,100292.50
2023-04-07T02:51:17.825Z,100291.31
2023-04-07T02:53:45.650Z,100287.50
2023-04-07T02:56:15.759Z,100289.75
2023-04-07T02:58:43.663Z,100295.03
2023-04-07T03:01:11.122Z,100294.38
2023-04-07T03:03:40.142Z,100294.31
2023-04-07T03:06:08.050Z,100291.13
2023-04-07T03:08:35.889Z,100291.72
2023-04-07T03:11:03.329Z,100283.63
2023-04-07T03:13:32.763Z,100282.59
2023-04-07T03:16:00.149Z,100287.44
2023-04-07T03:18:28.334Z,100283.16
2023-04-07T03:20:55.716Z,100283.44
2023-04-07T03:23:23.585Z,100277.34
2023-04-07T03:25:51.021Z,100278.03
2023-04-07T03:28:18.784Z,100272.72
2023-04-07T03:30:47.858Z,100273.78
2023-04-07T03:33:16.129Z,100272.81
2023-04-07T03:35:43.671Z,100266.22
2023-04-07T03:38:11.498Z,100268.88
2023-04-07T03:40:38.953Z,100265.09
2023-04-07T03:43:07.093Z,100268.25
2023-04-07T03:45:34.709Z,100273.56
2023-04-07T03:48:04.714Z,100280.88
2023-04-07T03:50:32.224Z,100277.81
2023-04-07T03:53:00.105Z,100281.75
2023-04-07T03:55:28.220Z,100286.25
2023-04-07T03:57:56.615Z,100279.38
2023-04-07T04:00:24.137Z,100284.22
2023-04-07T04:02:52.347Z,100277.97
2023-04-07T04:05:21.354Z,100281.81
2023-04-07T04:07:49.257Z,100290.66
2023-04-07T04:10:16.700Z,100285.31
2023-04-07T04:12:44.688Z,100286.72
2023-04-07T04:15:12.139Z,100280.28
2023-04-07T04:17:42.049Z,100285.19
2023-04-07T04:20:10.275Z,100285.03
2023-04-07T04:22:39.744Z,100281.59
2023-04-07T04:25:07.519Z,100289.38
2023-04-07T04:27:35.776Z,100294.31
2023-04-07T04:30:03.683Z,100284.97
2023-04-07T04:32:31.670Z,100290.44
2023-04-07T04:34:58.996Z,100284.78
2023-04-07T04:37:27.571Z,100289.06
2023-04-07T04:39:56.484Z,100287.38
2023-04-07T04:42:24.367Z,100283.31
2023-04-07T04:44:51.930Z,100290.88
2023-04-07T04:47:19.859Z,100278.19
2023-04-07T04:49:47.250Z,100289.69
2023-04-07T04:52:15.001Z,100286.91
2023-04-07T04:54:42.481Z,100289.84
2023-04-07T04:57:12.092Z,100288.09
2023-04-07T04:59:39.535Z,100295.06
2023-04-07T05:02:07.426Z,100295.97
2023-04-07T05:04:34.927Z,100290.81
2023-04-07T05:07:03.082Z,100294.91
2023-04-07T05:09:31.127Z,100298.75
2023-04-07T05:11:58.947Z,100295.69
2023-04-07T05:14:28.367Z,100291.78
2023-04-07T05:16:56.214Z,100297.91
2023-04-07T05:19:23.582Z,100295.91
2023-04-07T05:21:51.504Z,100290.75
2023-04-07T05:24:18.858Z,100293.94
2023-04-07T05:26:46.672Z,100295.56
2023-04-07T05:29:14.284Z,100294.72
2023-04-07T05:31:43.653Z,100290.44
2023-04-07T05:34:11.189Z,100293.00
2023-04-07T05:36:39.260Z,100290.81
2023-04-07T05:39:06.656Z,100291.34
2023-04-07T05:41:34.348Z,100291.91
2023-04-07T05:44:01.833Z,100298.63
2023-04-07T05:46:29.688Z,100295.28
2023-04-07T05:49:00.759Z,100304.91
2023-04-07T05:51:32.718Z,100304.13
2023-04-07T05:54:02.611Z,100300.69
2023-04-07T05:56:30.396Z,100291.66
2023-04-07T05:58:58.164Z,100298.50
2023-04-07T06:01:27.041Z,100301.47
2023-04-07T06:03:55.319Z,100291.59
2023-04-07T06:06:24.752Z,100284.59
2023-04-07T06:08:52.285Z,100288.75
2023-04-07T06:11:20.473Z,100288.75
2023-04-07T06:13:48.461Z,100286.66
2023-04-07T06:16:17.437Z,100291.97
2023-04-07T06:18:46.688Z,100295.34
2023-04-07T06:21:15.246Z,100295.75
2023-04-07T06:23:44.196Z,100302.84
2023-04-07T06:26:12.930Z,100297.72
2023-04-07T06:28:40.442Z,100300.16
2023-04-07T06:31:08.754Z,100297.94
2023-04-07T06:33:36.605Z,100291.28
2023-04-07T06:36:04.893Z,100299.91
2023-04-07T06:38:32.486Z,100298.44
2023-04-07T06:41:01.802Z,100296.25
2023-04-07T06:43:30.952Z,100297.81
2023-04-07T06:45:58.928Z,100294.16
2023-04-07T06:48:26.560Z,100294.16
2023-04-07T06:50:54.701Z,100297.16
2023-04-07T06:53:23.788Z,100294.34
2023-04-07T06:55:51.806Z,100292.25
2023-04-07T06:58:20.679Z,100294.63
2023-04-07T07:00:48.390Z,100290.28
2023-04-07T07:03:16.652Z,100297.50
2023-04-07T07:05:45.071Z,100304.38
2023-04-07T07:08:12.444Z,100290.03
2023-04-07T07:10:40.469Z,100286.34
2023-04-07T07:13:07.984Z,100287.50
2023-04-07T07:15:37.232Z,100288.22
2023-04-07T07:18:05.146Z,100283.16
2023-04-07T07:20:32.943Z,100282.63
2023-04-07T07:23:00.773Z,100279.81
2023-04-07T07:25:28.932Z,100286.34
2023-04-07T07:27:56.491Z,100291.50
2023-04-07T07:30:24.746Z,100283.09
2023-04-07T07:32:54.859Z,100290.50
2023-04-07T07:35:23.179Z,100288.41
2023-04-07T07:37:50.890Z,100287.06
2023-04-07T07:40:18.904Z,100291.59
2023-04-07T07:42:47.223Z,100289.81
2023-04-07T07:45:15.380Z,100302.84
2023-04-07T07:47:43.467Z,100298.88
2023-04-07T07:50:13.678Z,100295.94
2023-04-07T07:52:41.306Z,100293.19
2023-04-07T07:55:09.760Z,100296.09
2023-04-07T07:57:37.657Z,100296.00
2023-04-07T08:00:07.311Z,100297.44
2023-04-07T08:02:35.118Z,100296.28
2023-04-07T08:05:04.276Z,100295.41
2023-04-07T08:07:33.450Z,100295.41
2023-04-07T08:10:01.351Z,100295.25
2023-04-07T08:12:28.792Z,100297.97
2023-04-07T08:14:56.859Z,100301.47
2023-04-07T08:17:24.338Z,100304.38
2023-04-07T08:19:52.358Z,100304.31
2023-04-07T08:22:19.994Z,100302.50
2023-04-07T08:24:49.725Z,100306.66
2023-04-07T08:27:20.037Z,100306.88
2023-04-07T08:29:59.449Z,100301.78
2023-04-07T08:32:37.965Z,100303.66
2023-04-07T08:35:06.399Z,100306.59
2023-04-07T08:37:34.972Z,100306.16
2023-04-07T08:40:05.517Z,100310.06
2023-04-07T08:42:35.225Z,100312.28
2023-04-07T08:45:06.502Z,100312.63
2023-04-07T08:47:35.213Z,100317.50
2023-04-07T08:50:07.591Z,100312.03
2023-04-07T08:52:41.824Z,100310.59
2023-04-07T08:55:11.501Z,100307.00
2023-04-07T08:57:39.936Z,100306.50
2023-04-07T09:00:09.575Z,100310.22
2023-04-07T09:02:39.058Z,100302.44
2023-04-07T09:05:08.949Z,100299.22
2023-04-07T09:07:38.469Z,100296.41
2023-04-07T09:10:07.918Z,100307.28
2023-04-07T09:12:36.958Z,100302.44
2023-04-07T09:15:06.529Z,100294.78
2023-04-07T09:17:34.090Z,100295.94
2023-04-07T09:20:03.064Z,100293.72
2023-04-07T09:22:38.960Z,100300.19
2023-04-07T09:25:14.636Z,100298.41
2023-04-07T09:27:54.839Z,100300.81
2023-04-07T09:30:23.868Z,100298.56
2023-04-07T09:32:51.363Z,100301.38
2023-04-07T09:35:19.365Z,100295.38
2023-04-07T09:38:01.874Z,100297.94
2023-04-07T09:40:29.716Z,100296.22
2023-04-07T09:42:58.847Z,100298.34
2023-04-07T09:45:34.525Z,100302.47
2023-04-07T09:48:06.529Z,100306.13
2023-04-07T09:50:35.680Z,100303.19
2023-04-07T09:53:05.746Z,100300.53
2023-04-07T09:55:34.071Z,100298.16
2023-04-07T09:58:05.335Z,100306.69
2023-04-07T10:00:33.681Z,100303.94
2023-04-07T10:03:01.694Z,100303.06
2023-04-07T10:05:30.183Z,100298.59
2023-04-07T10:07:57.838Z,100301.25
2023-04-07T10:10:27.588Z,100302.38
2023-04-07T10:12:56.655Z,100298.44
2023-04-07T10:15:26.472Z,100296.75
2023-04-07T10:17:54.631Z,100292.25
2023-04-07T10:20:23.909Z,100293.81
2023-04-07T10:22:53.100Z,100294.22
2023-04-07T10:25:24.303Z,100296.06
2023-04-07T10:27:56.622Z,100300.13
2023-04-07T10:30:28.048Z,100299.03
2023-04-07T10:32:56.086Z,100295.50
2023-04-07T10:35:24.733Z,100290.72
2023-04-07T10:38:12.860Z,100290.28
2023-04-07T10:40:42.669Z,100297.34
2023-04-07T10:43:11.174Z,100293.69
2023-04-07T10:45:56.889Z,100291.84
2023-04-07T10:48:24.125Z,100291.41
2023-04-07T10:51:16.414Z,100293.09
2023-04-07T10:54:02.053Z,100290.88
2023-04-07T10:57:03.342Z,100301.69
2023-04-07T10:59:31.492Z,100295.06
2023-04-07T11:02:31.239Z,100297.06
2023-04-07T11:04:58.965Z,100296.75
2023-04-07T11:07:45.485Z,100296.06
2023-04-07T11:10:13.725Z,100298.16
2023-04-07T11:12:42.013Z,100300.81
2023-04-07T11:15:21.105Z,100304.78
2023-04-07T11:18:08.928Z,100299.00
2023-04-07T11:20:46.134Z,100296.91
2023-04-07T11:23:15.807Z,100294.53
2023-04-07T11:25:44.785Z,100297.59
2023-04-07T11:28:13.721Z,100297.19
2023-04-07T11:30:47.584Z,100291.56
2023-04-07T11:33:19.152Z,100296.03
2023-04-07T11:35:54.820Z,100299.00
2023-04-07T11:38:26.493Z,100302.38
2023-04-07T11:40:56.068Z,100294.38
2023-04-07T11:43:25.928Z,100294.22
2023-04-07T11:46:07.956Z,100297.03
2023-04-07T11:48:39.350Z,100295.38
2023-04-07T11:51:15.175Z,100297.44
2023-04-07T11:53:43.580Z,100297.72
2023-04-07T11:56:13.663Z,100296.31
2023-04-07T11:58:47.430Z,100296.06
2023-04-07T12:01:14.971Z,100297.75
2023-04-07T12:03:58.716Z,100302.09
2023-04-07T12:06:30.228Z,100301.41
2023-04-07T12:08:58.456Z,100297.19
2023-04-07T12:11:26.069Z,100293.66
2023-04-07T12:13:54.307Z,100296.75
2023-04-07T12:16:22.596Z,100292.00
2023-04-07T12:18:51.529Z,100289.72
2023-04-07T12:21:20.865Z,100286.50
2023-04-07T12:23:49.328Z,100280.59
2023-04-07T12:26:17.057Z,100286.78
2023-04-07T12:28:45.103Z,100284.81
2023-04-07T12:31:12.586Z,100280.19
2023-04-07T12:33:40.667Z,100277.78
2023-04-07T12:36:08.435Z,100272.44
2023-04-07T12:38:50.258Z,100279.19
2023-04-07T12:41:17.965Z,100278.78
2023-04-07T12:43:46.950Z,100274.84
2023-04-07T12:46:15.034Z,100277.38
2023-04-07T12:48:44.307Z,100279.34
2023-04-07T12:51:12.106Z,100275.13
2023-04-07T12:53:41.621Z,100271.47
2023-04-07T12:56:09.275Z,100279.44
2023-04-07T12:58:37.417Z,100278.47
2023-04-07T13:01:05.343Z,100283.41
2023-04-07T13:03:33.983Z,100279.06
2023-04-07T13:06:02.008Z,100275.69
2023-04-07T13:08:30.307Z,100279.19
2023-04-07T13:10:59.133Z,100275.53
2023-04-07T13:13:27.961Z,100270.19
2023-04-07T13:15:55.432Z,100265.31
2023-04-07T13:18:23.377Z,100267.69
2023-04-07T13:21:03.607Z,100270.06
2023-04-07T13:23:43.319Z,100264.47
2023-04-07T13:26:12.674Z,100264.03
2023-04-07T13:28:41.470Z,100266.16
2023-04-07T13:31:09.163Z,100256.16
2023-04-07T13:33:37.301Z,100266.00
2023-04-07T13:36:04.878Z,100263.31
2023-04-07T13:38:36.227Z,100262.63
2023-04-07T13:41:03.956Z,100260.06
2023-04-07T13:43:33.455Z,100257.13
2023-04-07T13:46:01.123Z,100263.03
2023-04-07T13:48:29.226Z,100257.41
2023-04-07T13:50:57.006Z,100265.97
2023-04-07T13:53:25.202Z,100256.66
2023-04-07T13:55:52.942Z,100255.59
2023-04-07T13:58:21.051Z,100258.94
2023-04-07T14:00:50.772Z,100255.88
2023-04-07T14:03:19.215Z,100255.59
2023-04-07T14:05:47.159Z,100257.69
2023-04-07T14:08:15.181Z,100249.91
2023-04-07T14:10:43.094Z,100259.91
2023-04-07T14:13:11.242Z,100255.25
2023-04-07T14:15:38.659Z,100260.28
2023-04-07T14:18:08.790Z,100259.31
2023-04-07T14:20:37.212Z,100266.31
2023-04-07T14:23:05.233Z,100267.66
2023-04-07T14:25:32.925Z,100265.78
2023-04-07T14:28:00.908Z,100252.44
2023-04-07T14:30:28.595Z,100256.94
2023-04-07T14:32:56.650Z,100255.56
2023-04-07T14:35:25.826Z,100257.00
2023-04-07T14:37:53.884Z,100260.22
2023-04-07T14:40:21.645Z,100261.63
2023-04-07T14:42:50.043Z,100265.25
2023-04-07T14:45:17.814Z,100256.84
2023-04-07T14:47:45.811Z,100264.56
2023-04-07T14:50:13.492Z,100260.53
2023-04-07T14:52:42.917Z,100267.69
2023-04-07T14:55:10.565Z,100259.91
2023-04-07T14:57:38.627Z,100264.91
2023-04-07T15:00:07.281Z,100259.06
2023-04-07T15:02:36.695Z,100271.31
2023-04-07T15:05:05.119Z,100268.16
2023-04-07T15:07:33.505Z,100272.06
2023-04-07T15:10:02.551Z,100268.44
2023-04-07T15:12:31.031Z,100272.28
2023-04-07T15:14:58.869Z,100277.09
2023-04-07T15:17:40.012Z,100274.00
2023-04-07T15:20:11.665Z,100278.09
2023-04-07T15:22:40.167Z,100275.94
2023-04-07T15:25:09.425Z,100271.44
2023-04-07T15:27:37.618Z,100270.75
2023-04-07T15:30:06.148Z,100278.78
2023-04-07T15:32:34.328Z,100274.13
2023-04-07T15:35:01.857Z,100274.28
2023-04-07T15:37:29.783Z,100270.19
2023-04-07T15:39:57.262Z,100274.69
2023-04-07T15:42:26.636Z,100279.03
2023-04-07T15:44:54.308Z,100282.00
2023-04-07T15:47:22.453Z,100281.59
2023-04-07T15:49:50.091Z,100280.47
2023-04-07T15:52:18.109Z,100278.06
2023-04-07T15:54:45.645Z,100278.34
2023-04-07T15:57:13.560Z,100279.63
2023-04-07T15:59:42.579Z,100288.47
2023-04-07T16:02:13.020Z,100279.47
2023-04-07T16:04:41.936Z,100278.78
2023-04-07T16:07:10.072Z,100285.38
2023-04-07T16:09:38.050Z,100281.72
2023-04-07T16:12:06.302Z,100285.25
2023-04-07T16:14:34.177Z,100287.63
2023-04-07T16:17:03.812Z,100287.63
2023-04-07T16:19:31.383Z,100293.53
2023-04-07T16:21:59.415Z,100283.41
2023-04-07T16:24:27.186Z,100280.28
2023-04-07T16:26:55.004Z,100288.47
2023-04-07T16:29:24.928Z,100282.56
2023-04-07T16:31:53.699Z,100280.31
2023-04-07T16:34:23.085Z,100281.44
2023-04-07T16:36:51.189Z,100286.66
2023-04-07T16:39:19.576Z,100281.31
2023-04-07T16:41:47.412Z,100278.63
2023-04-07T16:44:15.208Z,100290.00
2023-04-07T16:46:43.475Z,100290.56
2023-04-07T16:49:11.068Z,100284.09
2023-04-07T16:51:40.539Z,100287.47
2023-04-07T16:54:07.999Z,100285.50
2023-04-07T16:56:36.019Z,100287.72
2023-04-07T16:59:04.077Z,100290.25
2023-04-07T17:01:32.050Z,100290.88
2023-04-07T17:03:59.730Z,100291.72
2023-04-07T17:06:28.070Z,100288.19
2023-04-07T17:08:57.161Z,100287.34
2023-04-07T17:11:25.485Z,100291.50
2023-04-07T17:13:53.018Z,100293.94
2023-04-07T17:16:21.484Z,100294.91
2023-04-07T17:18:49.403Z,100292.66
2023-04-07T17:21:17.662Z,100300.81
2023-04-07T17:23:45.336Z,100297.34
2023-04-07T17:26:14.866Z,100303.75
2023-04-07T17:28:42.391Z,100306.00
2023-04-07T17:31:12.926Z,100309.78
2023-04-07T17:33:40.607Z,100309.75
2023-04-07T17:36:08.968Z,100310.31
2023-04-07T17:38:36.643Z,100316.84
2023-04-07T17:41:04.783Z,100317.34
2023-04-07T17:43:33.769Z,100313.25
2023-04-07T17:46:01.740Z,100321.97
2023-04-07T17:48:29.321Z,100313.97
2023-04-07T17:50:57.165Z,100316.75
2023-04-07T17:53:24.837Z,100313.66
2023-04-07T17:55:52.744Z,100317.84
2023-04-07T17:58:20.186Z,100321.06
2023-04-07T18:00:49.650Z,100326.72
2023-04-07T18:03:17.785Z,100332.28
2023-04-07T18:05:47.252Z,100325.22
2023-04-07T18:08:14.943Z,100329.91
2023-04-07T18:10:43.082Z,100333.81
2023-04-07T18:13:10.553Z,100338.75
2023-04-07T18:15:38.541Z,100334.44
2023-04-07T18:18:07.768Z,100330.44
2023-04-07T18:20:35.641Z,100328.81
2023-04-07T18:23:03.121Z,100335.03
2023-04-07T18:25:30.853Z,100330.38
2023-04-07T18:27:58.487Z,100330.03
2023-04-07T18:30:26.288Z,100332.72
2023-04-07T18:32:53.616Z,100329.81
2023-04-07T18:35:23.409Z,100334.28
2023-04-07T18:37:51.011Z,100334.41
2023-04-07T18:40:19.243Z,100333.69
2023-04-07T18:42:46.770Z,100341.06
2023-04-07T18:45:14.988Z,100338.97
2023-04-07T18:47:42.632Z,100344.00
2023-04-07T18:50:11.519Z,100335.78
2023-04-07T18:52:40.826Z,100338.63
2023-04-07T18:55:09.881Z,100337.28
2023-04-07T18:57:37.914Z,100344.25
2023-04-07T19:00:07.304Z,100341.50
2023-04-07T19:02:34.954Z,100336.19
2023-04-07T19:05:03.702Z,100334.91
2023-04-07T19:07:31.238Z,100342.06
2023-04-07T19:10:00.696Z,100338.28
2023-04-07T19:12:28.376Z,100340.00
2023-04-07T19:14:56.210Z,100336.88
2023-04-07T19:17:23.952Z,100337.06
2023-04-07T19:19:51.835Z,100339.22
2023-04-07T19:22:19.657Z,100340.56
2023-04-07T19:24:48.121Z,100339.72
2023-04-07T19:27:17.398Z,100343.56
2023-04-07T19:29:45.394Z,100351.19
2023-04-07T19:32:12.929Z,100346.53
2023-04-07T19:34:41.195Z,100348.38
2023-04-07T19:37:08.933Z,100346.88
2023-04-07T19:39:37.356Z,100343.50
2023-04-07T19:42:05.077Z,100346.50
2023-04-07T19:44:34.893Z,100342.31
2023-04-07T19:47:02.853Z,100349.41
2023-04-07T19:49:30.877Z,100348.34
2023-04-07T19:51:58.608Z,100350.53
2023-04-07T19:54:26.544Z,100349.59
2023-04-07T19:56:54.537Z,100352.31
2023-04-07T19:59:22.450Z,100352.03
2023-04-07T20:01:52.967Z,100345.25
2023-04-07T20:04:21.038Z,100354.16
2023-04-07T20:06:48.512Z,100348.47
2023-04-07T20:09:16.342Z,100339.78
2023-04-07T20:11:44.525Z,100348.00
2023-04-07T20:14:12.519Z,100344.97
2023-04-07T20:16:40.213Z,100350.00
2023-04-07T20:19:10.356Z,100349.53
2023-04-07T20:21:37.982Z,100353.91
2023-04-07T20:24:06.358Z,100347.72
2023-04-07T20:26:34.116Z,100351.03
2023-04-07T20:29:02.467Z,100351.78
2023-04-07T20:31:30.044Z,100344.44
2023-04-07T20:33:59.564Z,100339.44
2023-04-07T20:36:28.522Z,100335.88
2023-04-07T20:38:56.672Z,100335.84
2023-04-07T20:41:24.215Z,100334.31
2023-04-07T20:43:52.283Z,100339.06
2023-04-07T20:46:19.833Z,100343.50
2023-04-07T20:48:48.019Z,100340.88
2023-04-07T20:51:15.885Z,100341.59
2023-04-07T20:53:45.311Z,100337.19
2023-04-07T20:56:12.921Z,100340.97
2023-04-07T20:58:41.101Z,100334.53
2023-04-07T21:01:08.866Z,100332.81
2023-04-07T21:03:37.264Z,100333.47
2023-04-07T21:06:04.976Z,100328.97
2023-04-07T21:08:33.270Z,100325.22
2023-04-07T21:11:02.441Z,100324.47
2023-04-07T21:13:30.602Z,100322.56
2023-04-07T21:15:58.569Z,100325.03
2023-04-07T21:18:26.475Z,100325.03
2023-04-07T21:20:56.691Z,100327.28
2023-04-07T21:23:24.701Z,100336.53
2023-04-07T21:25:52.233Z,100329.16
2023-04-07T21:28:21.771Z,100328.97
2023-04-07T21:30:49.432Z,100331.03
2023-04-07T21:33:17.381Z,100324.56
2023-04-07T21:35:44.831Z,100318.41
2023-04-07T21:38:12.840Z,100319.13
2023-04-07T21:40:40.478Z,100324.38
2023-04-07T21:43:08.481Z,100326.16
2023-04-07T21:45:37.626Z,100331.63
2023-04-07T21:48:05.951Z,100328.19
2023-04-07T21:50:33.603Z,100329.06
2023-04-07T21:53:01.452Z,100330.88
2023-04-07T21:55:29.026Z,100330.91
2023-04-07T21:57:57.232Z,100326.72
2023-04-07T22:00:24.680Z,100319.66
2023-04-07T22:02:54.058Z,100321.63
2023-04-07T22:05:21.799Z,100323.31
2023-04-07T22:07:49.583Z,100316.28
2023-04-07T22:10:17.029Z,100320.63
2023-04-07T22:12:44.781Z,100316.13
2023-04-07T22:15:12.422Z,100317.38
2023-04-07T22:17:40.519Z,100313.63
2023-04-07T22:20:11.113Z,100317.69
2023-04-07T22:22:39.299Z,100317.44
2023-04-07T22:25:07.543Z,100314.97
2023-04-07T22:27:35.484Z,100313.47
2023-04-07T22:30:03.162Z,100323.41
2023-04-07T22:32:31.080Z,100322.72
2023-04-07T22:34:58.455Z,100315.56
2023-04-07T22:37:27.846Z,100323.44
2023-04-07T22:39:55.389Z,100322.59
2023-04-07T22:42:23.986Z,100318.50
2023-04-07T22:44:51.504Z,100322.28
2023-04-07T22:47:20.813Z,100326.34
2023-04-07T22:49:48.526Z,100324.28
2023-04-07T22:52:16.449Z,100325.28
2023-04-07T22:54:45.884Z,100335.81
2023-04-07T22:57:13.839Z,100329.50
2023-04-07T22:59:41.288Z,100333.00
2023-04-07T23:02:09.804Z,100329.06
2023-04-07T23:04:37.396Z,100343.53
2023-04-07T23:07:05.459Z,100342.56
2023-04-07T23:09:33.026Z,100348.63
2023-04-07T23:12:02.395Z,100345.09
2023-04-07T23:14:29.785Z,100336.41
2023-04-07T23:16:57.858Z,100340.72
2023-04-07T23:19:25.567Z,100340.59
2023-04-07T23:21:53.705Z,100342.56
2023-04-07T23:24:21.249Z,100347.91
2023-04-07T23:26:49.488Z,100345.91
2023-04-07T23:29:18.677Z,100346.06
2023-04-07T23:31:47.185Z,100353.63
2023-04-07T23:34:14.593Z,100346.34
2023-04-07T23:36:42.583Z,100352.09
2023-04-07T23:39:10.005Z,100356.34
2023-04-07T23:41:37.994Z,100356.63
2023-04-07T23:44:05.423Z,100357.47
2023-04-07T23:46:34.848Z,100356.34
2023-04-07T23:49:02.381Z,100355.78
2023-04-07T23:51:30.287Z,100359.00
2023-04-07T23:53:57.625Z,100356.50
2023-04-07T23:56:25.622Z,100361.13
2023-04-07T23:58:53.036Z,100364.91
